Time;durP1;ratioP1;P1;durP2;ratioP2;P2;SDS_P1;SDS_P2;PMS_P1;PMS_P2;Temp;Humidity;BMP_temperature;BMP_pressure;BME280_temperature;BME280_humidity;BME280_pressure;Samples;Min_cycle;Max_cycle;Signal;HPM_P1;HPM_P2
2023/02/23 00:02:12;;;;;;;4.35;2.72;;;;;;;9.27;58.63;101219.38;5045505;28;20065;-79
2023/02/23 00:04:38;;;;;;;4.97;2.45;;;;;;;9.23;58.67;101210.03;5030371;28;20033;-79
2023/02/23 00:07:05;;;;;;;7.32;3.20;;;;;;;9.20;58.90;101225.63;5028879;28;20025;-79
2023/02/23 00:09:34;;;;;;;2.72;1.75;;;;;;;9.07;58.64;101203.72;5028793;28;20036;-79
2023/02/23 00:12:02;;;;;;;5.72;3.55;;;;;;;9.14;59.01;101231.84;5029136;28;20033;-79
2023/02/23 00:14:27;;;;;;;5.10;3.17;;;;;;;9.12;58.96;101217.28;5029096;28;20060;-79
2023/02/23 00:16:55;;;;;;;8.13;3.72;;;;;;;9.13;58.79;101229.28;5028763;28;20084;-79
2023/02/23 00:19:23;;;;;;;5.53;2.75;;;;;;;9.11;59.08;101231.09;5028763;28;20558;-79
2023/02/23 00:21:49;;;;;;;4.25;3.40;;;;;;;9.12;58.95;101237.94;5030084;28;20021;-79
2023/02/23 00:24:17;;;;;;;7.82;4.78;;;;;;;8.89;59.27;101218.06;5028661;28;20116;-79
2023/02/23 00:26:44;;;;;;;7.50;3.80;;;;;;;9.03;59.76;101243.41;5028967;28;20492;-79
2023/02/23 00:29:17;;;;;;;3.05;2.75;;;;;;;8.83;59.84;101239.72;5028671;28;20041;-79
2023/02/23 00:31:46;;;;;;;2.47;1.90;;;;;;;8.57;60.71;101240.56;5045737;28;20017;-79
2023/02/23 00:34:12;;;;;;;4.50;2.20;;;;;;;8.45;61.32;101240.06;5028966;28;20029;-79
2023/02/23 00:36:38;;;;;;;4.45;2.22;;;;;;;8.44;61.59;101252.13;5045052;28;20497;-79
2023/02/23 00:39:16;;;;;;;3.33;2.17;;;;;;;8.25;62.01;101256.09;5028381;28;20087;-79
2023/02/23 00:41:41;;;;;;;3.38;1.85;;;;;;;8.13;62.39;101259.88;5046428;28;20021;-79
2023/02/23 00:44:07;;;;;;;4.07;2.17;;;;;;;8.00;62.42;101250.81;5032388;28;20033;-79
2023/02/23 00:46:32;;;;;;;4.65;2.15;;;;;;;7.87;62.68;101237.44;5032093;28;20041;-79
2023/02/23 00:48:58;;;;;;;2.92;2.28;;;;;;;7.92;62.52;101255.34;5032368;28;20404;-79
2023/02/23 00:51:26;;;;;;;7.28;2.95;;;;;;;7.72;63.16;101233.53;5032595;28;20087;-79
2023/02/23 00:53:54;;;;;;;7.05;3.70;;;;;;;7.84;62.93;101255.53;5031840;28;20064;-79
2023/02/23 00:56:20;;;;;;;4.68;2.13;;;;;;;7.74;63.18;101257.53;5048784;28;20026;-79
2023/02/23 00:58:46;;;;;;;4.10;2.50;;;;;;;7.69;63.55;101256.81;5032113;28;20389;-79
2023/02/23 01:01:12;;;;;;;3.53;2.58;;;;;;;7.64;63.57;101261.22;5032036;28;20073;-80
2023/02/23 01:03:38;;;;;;;2.67;2.05;;;;;;;7.60;63.64;101258.78;5048291;28;20079;-79
2023/02/23 01:06:05;;;;;;;4.53;2.75;;;;;;;7.55;64.24;101261.47;5047901;28;20029;-80
2023/02/23 01:08:34;;;;;;;3.78;2.00;;;;;;;7.48;64.38;101265.97;5048100;28;20431;-79
2023/02/23 01:11:08;;;;;;;4.13;2.55;;;;;;;7.28;64.58;101232.16;5031706;28;20500;-79
2023/02/23 01:13:37;;;;;;;4.75;2.55;;;;;;;7.21;64.91;101224.63;5031711;28;20064;-79
2023/02/23 01:16:05;;;;;;;7.10;4.45;;;;;;;7.30;65.17;101255.28;5031503;28;20443;-79
2023/02/23 01:18:33;;;;;;;6.10;3.75;;;;;;;7.40;65.19;101267.88;5031793;28;20476;-79
2023/02/23 01:20:59;;;;;;;3.80;2.40;;;;;;;7.34;65.64;101268.03;5031126;28;20381;-79
2023/02/23 01:23:24;;;;;;;6.00;2.47;;;;;;;7.27;65.91;101261.34;5031302;28;20036;-79
2023/02/23 01:25:50;;;;;;;2.80;2.45;;;;;;;7.08;66.16;101240.38;5031313;28;20029;-79
2023/02/23 01:28:15;;;;;;;3.42;2.10;;;;;;;7.10;65.75;101253.22;5031242;28;20049;-79
2023/02/23 01:30:40;;;;;;;5.30;3.55;;;;;;;6.88;65.72;101233.16;5031301;28;20029;-79
2023/02/23 01:33:06;;;;;;;3.65;3.10;;;;;;;7.06;66.22;101278.16;5031210;28;20048;-79
2023/02/23 01:35:34;;;;;;;8.02;2.85;;;;;;;6.91;66.49;101268.25;5030919;28;20073;-79
2023/02/23 01:38:00;;;;;;;6.72;3.30;;;;;;;6.85;66.72;101258.09;5031463;28;20491;-79
2023/02/23 01:40:29;;;;;;;5.15;3.38;;;;;;;6.93;66.29;101271.63;5014748;28;20037;-79
2023/02/23 01:42:59;;;;;;;3.92;3.10;;;;;;;6.83;66.97;101275.28;5031062;28;20124;-79
2023/02/23 01:45:33;;;;;;;4.00;2.80;;;;;;;6.73;67.45;101284.09;5047669;28;20083;-79
2023/02/23 01:48:14;;;;;;;10.02;5.43;;;;;;;6.71;67.57;101286.69;5032267;28;20037;-79
2023/02/23 01:51:02;;;;;;;4.25;3.03;;;;;;;6.64;67.38;101261.16;5047342;28;20080;-79
2023/02/23 01:53:29;;;;;;;3.80;3.20;;;;;;;6.58;67.61;101265.53;5047708;28;20036;-79
2023/02/23 01:55:56;;;;;;;4.55;3.13;;;;;;;6.68;67.41;101285.91;5031060;28;20032;-79
2023/02/23 01:58:23;;;;;;;5.75;3.97;;;;;;;6.49;67.31;101281.19;5030915;28;20443;-79
2023/02/23 02:00:52;;;;;;;4.90;2.72;;;;;;;6.55;67.71;101291.31;5030969;28;20022;-79
2023/02/23 02:03:25;;;;;;;4.53;2.95;;;;;;;6.37;68.35;101296.84;5030866;28;20025;-79
2023/02/23 02:05:50;;;;;;;3.53;2.95;;;;;;;6.27;67.76;101272.22;5014006;28;20132;-79
2023/02/23 02:08:17;;;;;;;3.72;2.15;;;;;;;6.49;68.06;101306.03;5014256;28;20404;-79
2023/02/23 02:10:45;;;;;;;2.78;2.03;;;;;;;6.46;67.78;101308.66;5047172;28;20033;-79
2023/02/23 02:13:13;;;;;;;4.78;3.13;;;;;;;6.36;68.18;101305.44;5030427;28;20034;-79
2023/02/23 02:16:12;;;;;;;7.68;3.65;;;;;;;6.23;68.66;101298.88;5030871;28;20030;-79
2023/02/23 02:19:10;;;;;;;4.32;2.88;;;;;;;6.31;68.92;101312.41;5030996;28;20029;-79
2023/02/23 02:22:07;;;;;;;4.88;2.78;;;;;;;6.26;69.02;101319.34;5030393;28;20091;-79
2023/02/23 02:25:00;;;;;;;1.67;1.55;;;;;;;6.35;68.96;101318.31;5019212;28;20496;-79
2023/02/23 02:27:28;;;;;;;;;;;;;;;6.33;68.93;101315.78;5047170;28;20091;-79
2023/02/23 02:30:26;;;;;;;6.85;2.30;;;;;;;6.25;69.02;101318.50;5046549;28;19944;-79
2023/02/23 02:33:12;;;;;;;5.57;2.70;;;;;;;6.12;69.66;101316.22;4962393;28;20037;-79
2023/02/23 02:36:16;;;;;;;3.90;3.20;;;;;;;6.29;69.06;101321.84;5045271;28;20048;-79
2023/02/23 02:39:22;;;;;;;7.20;2.70;;;;;;;6.19;69.47;101326.31;5031095;28;20029;-79
2023/02/23 02:42:06;;;;;;;2.53;1.92;;;;;;;6.29;69.70;101339.84;5030516;28;20462;-79
2023/02/23 02:44:58;;;;;;;3.72;2.35;;;;;;;6.20;69.63;101332.34;5031462;28;20492;-79
2023/02/23 02:47:35;;;;;;;2.53;2.33;;;;;;;6.25;69.20;101333.06;5044373;28;20022;-79
2023/02/23 02:50:32;;;;;;;4.65;2.05;;;;;;;6.36;69.14;101341.41;5029771;28;20025;-79
2023/02/23 02:53:04;;;;;;;5.57;3.40;;;;;;;6.16;69.39;101335.81;5025782;28;20049;-79
2023/02/23 02:55:36;;;;;;;3.53;1.92;;;;;;;6.18;69.53;101331.50;5046506;28;20064;-79
2023/02/23 02:58:01;;;;;;;4.78;3.08;;;;;;;6.22;69.10;101328.00;5029959;28;20037;-79
2023/02/23 04:17:47;;;;;;;8.80;2.78;;;;;;;6.51;66.48;101410.53;5048807;28;20041;-79
2023/02/23 04:20:13;;;;;;;4.65;3.47;;;;;;;6.19;67.11;101375.13;5032681;28;20079;-79
2023/02/23 04:22:38;;;;;;;11.60;3.08;;;;;;;6.38;66.94;101401.34;5032684;28;20509;-79
2023/02/23 04:25:07;;;;;;;2.75;2.22;;;;;;;6.36;66.36;101392.81;5034122;28;20032;-79
2023/02/23 04:27:34;;;;;;;11.88;3.42;;;;;;;6.41;66.69;101406.44;5032839;28;20041;-79
2023/02/23 04:30:00;;;;;;;6.65;3.05;;;;;;;6.36;66.30;101397.09;5030474;28;20033;-80
2023/02/23 04:32:25;;;;;;;5.18;2.88;;;;;;;6.20;67.14;101386.28;5030801;28;20084;-78
2023/02/23 04:34:51;;;;;;;2.83;2.03;;;;;;;6.25;67.06;101399.88;5029085;28;20088;-78
2023/02/23 04:37:17;;;;;;;6.20;2.97;;;;;;;6.15;66.88;101386.38;5013518;28;20026;-79
2023/02/23 04:39:47;;;;;;;4.97;2.83;;;;;;;6.24;66.99;101418.75;5029022;28;20030;-78
2023/02/23 04:42:13;;;;;;;6.38;4.18;;;;;;;6.20;66.43;101406.84;5027793;28;20409;-78
2023/02/23 04:44:38;;;;;;;4.22;2.65;;;;;;;6.11;67.36;101423.28;5028729;28;20084;-78
2023/02/23 04:47:04;;;;;;;4.25;3.50;;;;;;;6.03;67.17;101399.44;5028676;28;20025;-79
2023/02/23 04:49:29;;;;;;;5.40;3.65;;;;;;;6.10;66.87;101415.59;5029112;28;20034;-78
2023/02/23 04:51:55;;;;;;;5.03;3.17;;;;;;;6.11;67.48;101418.13;5028858;28;20037;-78
2023/02/23 04:54:20;;;;;;;8.85;4.30;;;;;;;6.12;66.60;101406.13;5028517;28;20489;-79
2023/02/23 04:56:46;;;;;;;13.88;3.53;;;;;;;5.96;67.08;101408.97;5028879;28;20064;-79
2023/02/23 04:59:12;;;;;;;7.40;4.55;;;;;;;5.93;67.35;101411.59;5028179;28;20051;-79
2023/02/23 05:01:37;;;;;;;9.23;3.55;;;;;;;5.87;67.65;101414.22;5028052;28;20029;-78
2023/02/23 05:04:03;;;;;;;7.57;3.60;;;;;;;5.78;67.88;101419.50;5012765;28;20033;-85
2023/02/23 05:06:29;;;;;;;5.60;4.30;;;;;;;5.66;67.62;101401.75;5029033;28;20552;-88
2023/02/23 05:08:54;;;;;;;5.95;3.90;;;;;;;5.90;68.27;101421.00;5044562;28;20124;-79
2023/02/23 05:11:19;;;;;;;5.95;4.20;;;;;;;5.87;67.43;101421.06;5031637;28;20484;-78
2023/02/23 05:13:45;;;;;;;6.07;3.28;;;;;;;5.89;67.05;101421.91;5047266;28;20029;-83
2023/02/23 05:16:10;;;;;;;4.75;3.50;;;;;;;5.76;67.25;101405.84;5014726;28;20036;-86
2023/02/23 05:18:36;;;;;;;5.43;3.78;;;;;;;5.71;67.34;101415.38;5014673;28;20068;-85
2023/02/23 05:21:04;;;;;;;7.07;3.58;;;;;;;5.55;67.29;101401.06;5027755;28;20036;-81
2023/02/23 05:23:30;;;;;;;7.13;3.88;;;;;;;5.53;67.51;101426.78;5043752;28;20084;-87
2023/02/23 05:26:00;;;;;;;5.47;3.80;;;;;;;5.40;67.93;101418.38;5044111;28;20033;-85
2023/02/23 05:28:25;;;;;;;4.78;3.72;;;;;;;5.45;67.85;101416.59;5022801;28;20524;-85
2023/02/23 05:30:51;;;;;;;7.63;3.75;;;;;;;5.51;67.71;101435.38;5017235;28;20121;-86
2023/02/23 05:33:16;;;;;;;8.82;5.15;;;;;;;5.34;67.87;101412.53;5040333;28;20029;-87
2023/02/23 05:35:42;;;;;;;8.65;4.32;;;;;;;5.46;67.84;101453.38;5048534;28;20599;-87
2023/02/23 05:38:07;;;;;;;8.23;4.50;;;;;;;5.40;68.41;101444.03;5037051;28;20147;-94
2023/02/23 05:40:33;;;;;;;5.13;3.97;;;;;;;5.44;67.94;101457.69;5031285;28;20484;-83
2023/02/23 05:42:58;;;;;;;4.60;3.35;;;;;;;5.41;67.72;101447.50;5030616;28;20029;-85
2023/02/23 05:45:24;;;;;;;12.25;5.63;;;;;;;5.56;67.77;101464.38;5030576;28;20627;-81
2023/02/23 05:47:50;;;;;;;7.85;4.88;;;;;;;5.46;67.90;101467.06;5031321;28;20037;-80
2023/02/23 05:50:16;;;;;;;15.57;5.28;;;;;;;5.58;67.68;101478.03;5030452;28;20041;-92
2023/02/23 05:52:42;;;;;;;8.05;5.55;;;;;;;5.52;67.76;101462.72;5027814;28;20025;-87
2023/02/23 05:55:09;;;;;;;6.43;4.22;;;;;;;5.57;67.46;101486.59;5034658;28;20025;-84
2023/02/23 05:57:34;;;;;;;8.60;5.05;;;;;;;5.66;67.03;101492.44;5023591;28;20037;-84
2023/02/23 06:00:00;;;;;;;6.47;4.15;;;;;;;5.56;66.92;101485.75;5022203;28;20049;-94
2023/02/23 06:02:26;;;;;;;4.82;3.90;;;;;;;5.50;66.74;101469.56;5014126;28;20036;-83
2023/02/23 06:04:51;;;;;;;3.90;3.42;;;;;;;5.66;66.21;101484.75;5015353;28;20115;-92
2023/02/23 06:07:17;;;;;;;4.28;3.03;;;;;;;5.71;66.58;101494.97;5044510;28;20477;-90
2023/02/23 06:09:42;;;;;;;6.15;3.33;;;;;;;5.60;67.33;101502.78;5026179;28;20117;-88
2023/02/23 06:12:08;;;;;;;6.75;4.47;;;;;;;5.69;66.81;101512.06;5028565;28;20029;-83
2023/02/23 06:14:34;;;;;;;16.48;3.75;;;;;;;5.53;66.51;101480.66;5033633;28;20030;-88
2023/02/23 06:16:59;;;;;;;7.55;4.05;;;;;;;5.78;66.29;101511.94;5029954;28;20025;-81
2023/02/23 06:19:25;;;;;;;8.32;6.53;;;;;;;5.65;66.17;101482.19;5016276;28;20450;-82
2023/02/23 06:21:54;;;;;;;9.23;3.25;;;;;;;5.81;65.52;101508.50;5026570;28;20025;-84
2023/02/23 06:24:20;;;;;;;7.43;4.10;;;;;;;5.86;65.77;101519.53;5018212;28;20104;-83
2023/02/23 06:26:46;;;;;;;7.15;4.50;;;;;;;5.82;64.97;101502.50;5036685;28;20508;-83
2023/02/23 06:29:11;;;;;;;7.97;4.38;;;;;;;5.99;65.16;101529.63;5027216;28;20050;-86
2023/02/23 06:31:37;;;;;;;14.48;4.93;;;;;;;5.89;64.98;101515.19;5026216;28;20437;-90
2023/02/23 06:34:02;;;;;;;7.32;4.30;;;;;;;5.99;64.84;101527.06;5028323;28;20120;-85
2023/02/23 06:36:28;;;;;;;6.15;3.53;;;;;;;5.97;64.97;101523.66;5026513;28;20036;-82
2023/02/23 06:38:57;;;;;;;5.68;4.13;;;;;;;6.18;64.34;101531.91;5025689;28;20033;-84
2023/02/23 06:41:23;;;;;;;5.03;4.20;;;;;;;6.22;64.34;101526.69;5013091;28;20520;-90
2023/02/23 06:43:49;;;;;;;8.07;3.95;;;;;;;6.21;64.28;101506.19;5020265;28;20169;-88
2023/02/23 06:46:14;;;;;;;8.25;4.28;;;;;;;6.42;64.49;101534.06;5016706;28;21034;-86
2023/02/23 06:48:40;;;;;;;8.60;4.35;;;;;;;6.49;64.12;101517.69;5028557;28;20079;-86
2023/02/23 06:51:05;;;;;;;7.57;3.65;;;;;;;6.68;63.44;101540.47;5036704;28;20033;-86
2023/02/23 06:53:32;;;;;;;4.35;2.55;;;;;;;6.77;63.57;101540.28;5032940;28;20029;-90
2023/02/23 06:55:58;;;;;;;10.95;3.83;;;;;;;6.81;63.37;101531.66;5023583;28;20029;-83
2023/02/23 06:58:23;;;;;;;6.88;4.22;;;;;;;6.84;63.20;101532.44;5035490;28;20044;-84
2023/02/23 07:00:49;;;;;;;6.03;3.47;;;;;;;6.91;63.12;101533.19;5026493;28;20504;-82
2023/02/23 07:03:14;;;;;;;6.15;3.05;;;;;;;7.04;62.88;101542.34;5024287;28;20022;-88
2023/02/23 07:05:40;;;;;;;4.25;3.20;;;;;;;7.11;62.04;101554.22;5028339;28;20033;-93
2023/02/23 07:08:05;;;;;;;11.90;4.20;;;;;;;7.21;62.56;101549.75;5020427;28;20037;-88
2023/02/23 07:10:32;;;;;;;3.67;2.50;;;;;;;7.16;61.70;101538.66;5009506;28;20037;-86
2023/02/23 07:12:58;;;;;;;8.02;3.38;;;;;;;7.35;61.81;101552.00;5029328;28;20052;-90
2023/02/23 07:15:24;;;;;;;8.07;3.45;;;;;;;7.42;61.46;101551.88;5008145;28;20080;-89
2023/02/23 07:17:51;;;;;;;7.18;2.28;;;;;;;7.37;61.39;101539.94;5012797;28;20549;-85
2023/02/23 07:20:17;;;;;;;5.13;3.00;;;;;;;7.56;61.67;101550.72;5029525;28;20025;-87
2023/02/23 07:22:43;;;;;;;4.85;2.60;;;;;;;7.31;61.08;101493.78;5017142;28;20022;-88
2023/02/23 07:25:08;;;;;;;5.20;3.03;;;;;;;7.69;60.61;101541.84;5016421;28;20028;-80
2023/02/23 07:27:34;;;;;;;6.38;3.47;;;;;;;7.59;60.57;101517.19;5021054;28;20063;-86
2023/02/23 07:30:01;;;;;;;5.95;2.95;;;;;;;7.73;60.19;101541.75;5028848;28;20025;-88
2023/02/23 07:32:27;;;;;;;5.22;1.85;;;;;;;7.78;60.05;101551.09;5038395;28;20025;-86
2023/02/23 07:34:52;;;;;;;5.90;2.55;;;;;;;7.82;60.29;101545.84;5039839;28;20034;-80
2023/02/23 07:37:18;;;;;;;3.17;2.30;;;;;;;7.90;60.23;101545.66;5016710;28;20460;-88
2023/02/23 07:39:43;;;;;;;5.75;2.25;;;;;;;7.88;60.41;101552.59;5031404;28;20032;-91
2023/02/23 07:42:09;;;;;;;3.55;2.08;;;;;;;7.97;60.19;101558.38;4992545;28;20030;-93
2023/02/23 07:44:34;;;;;;;4.28;2.78;;;;;;;7.87;59.84;101545.75;5025286;28;20029;-89
2023/02/23 07:47:00;;;;;;;4.63;2.58;;;;;;;7.92;59.54;101557.63;5019425;28;20022;-86
2023/02/23 07:49:25;;;;;;;3.00;2.10;;;;;;;7.90;59.26;101545.66;5013493;28;20072;-80
2023/02/23 07:51:51;;;;;;;3.83;2.55;;;;;;;7.91;59.32;101552.50;5021930;28;20038;-85
2023/02/23 07:54:16;;;;;;;4.97;2.70;;;;;;;7.95;59.10;101562.69;5039572;28;20025;-80
2023/02/23 07:56:42;;;;;;;16.63;9.50;;;;;;;7.98;59.64;101560.06;4995938;28;20485;-81
2023/02/23 07:59:07;;;;;;;15.57;4.10;;;;;;;8.17;59.32;101575.09;5025834;28;20033;-87
2023/02/23 08:01:33;;;;;;;7.03;3.10;;;;;;;8.20;58.90;101565.56;5028422;28;20034;-87
2023/02/23 08:03:59;;;;;;;4.28;2.55;;;;;;;8.24;58.83;101572.31;5030658;28;20033;-92
2023/02/23 08:06:25;;;;;;;5.88;2.58;;;;;;;8.32;58.97;101575.56;5034868;28;20582;-93
2023/02/23 08:08:50;;;;;;;7.40;2.35;;;;;;;8.37;58.15;101564.34;5042848;28;20026;-93
2023/02/23 08:11:16;;;;;;;2.33;2.13;;;;;;;8.45;58.02;101560.66;5043433;28;20038;-92
2023/02/23 08:13:41;;;;;;;5.85;2.85;;;;;;;8.27;58.22;101543.91;5027702;28;20026;-87
2023/02/23 08:16:07;;;;;;;6.47;2.47;;;;;;;8.37;58.29;101570.34;5035972;28;20077;-92
2023/02/23 08:18:32;;;;;;;5.20;3.08;;;;;;;8.39;58.37;101566.00;5008398;28;20038;-87
2023/02/23 08:21:01;;;;;;;5.07;3.55;;;;;;;8.45;58.32;101560.66;5023736;28;20044;-89
2023/02/23 08:23:31;;;;;;;5.32;3.28;;;;;;;8.58;58.37;101569.81;5050238;28;20386;-89
2023/02/23 08:25:56;;;;;;;5.53;3.65;;;;;;;8.58;58.00;101562.06;5013419;28;20429;-80
2023/02/23 08:28:24;;;;;;;6.90;3.60;;;;;;;8.76;57.91;101565.91;5039366;28;20045;-86
2023/02/23 08:30:49;;;;;;;3.53;2.63;;;;;;;8.87;57.81;101561.28;5028343;28;20080;-82
2023/02/23 08:33:14;;;;;;;6.90;3.25;;;;;;;9.02;57.16;101572.94;5045846;28;20053;-82
2023/02/23 08:35:40;;;;;;;6.82;3.38;;;;;;;9.00;57.27;101572.13;5039592;28;20022;-84
2023/02/23 08:38:06;;;;;;;10.50;2.03;;;;;;;8.98;57.21;101549.84;5016982;28;20514;-84
2023/02/23 08:40:32;;;;;;;5.22;2.95;;;;;;;9.12;56.76;101581.25;5044035;28;20033;-87
2023/02/23 08:42:57;;;;;;;6.55;3.47;;;;;;;9.07;56.63;101572.81;4994984;28;20036;-82
2023/02/23 08:45:23;;;;;;;3.15;2.03;;;;;;;9.10;56.16;101570.13;5027816;28;20034;-89
2023/02/23 08:47:48;;;;;;;9.60;3.00;;;;;;;9.19;56.94;101588.81;5026597;28;20662;-84
2023/02/23 08:50:14;;;;;;;4.68;3.08;;;;;;;9.17;56.46;101582.00;5017600;28;20028;-85
2023/02/23 08:52:39;;;;;;;5.00;2.85;;;;;;;9.36;56.10;101587.50;5031575;28;20488;-89
2023/02/23 08:55:05;;;;;;;3.67;2.95;;;;;;;9.54;55.63;101593.84;5031020;28;20026;-91
2023/02/23 08:57:34;;;;;;;4.00;2.88;;;;;;;9.62;55.35;101595.31;5015482;28;20029;-88
2023/02/23 09:00:00;;;;;;;9.25;3.55;;;;;;;9.54;55.07;101596.41;5032097;28;20088;-88
2023/02/23 09:02:27;;;;;;;3.85;2.17;;;;;;;9.64;56.16;101595.28;5023694;28;20452;-87
2023/02/23 09:04:52;;;;;;;4.97;2.63;;;;;;;9.79;54.78;101587.06;5026369;28;20044;-87
2023/02/23 09:07:21;;;;;;;6.57;4.13;;;;;;;9.92;54.55;101603.88;5030622;28;20026;-83
2023/02/23 09:09:53;;;;;;;10.95;4.18;;;;;;;9.92;54.57;101590.94;5029094;28;20018;-82
2023/02/23 09:12:19;;;;;;;5.38;2.85;;;;;;;9.97;54.07;101586.50;5016766;28;20024;-94
2023/02/23 09:14:44;;;;;;;8.63;2.42;;;;;;;9.95;54.03;101561.59;5020003;28;20037;-89
2023/02/23 09:17:10;;;;;;;5.53;2.85;;;;;;;9.98;54.00;101592.50;5040130;28;20033;-86
2023/02/23 09:19:35;;;;;;;9.18;4.43;;;;;;;9.96;54.14;101558.97;5038893;28;20022;-86
2023/02/23 09:22:01;;;;;;;7.25;2.72;;;;;;;10.16;53.69;101591.09;5036815;28;20067;-86
2023/02/23 09:24:26;;;;;;;7.60;2.67;;;;;;;10.10;53.84;101588.69;5052678;28;20029;-88
2023/02/23 09:26:52;;;;;;;6.63;3.53;;;;;;;10.12;53.97;101587.75;5038664;28;20474;-78
2023/02/23 09:29:18;;;;;;;4.60;2.60;;;;;;;10.15;53.93;101595.44;5023425;28;20045;-79
2023/02/23 09:31:43;;;;;;;2.30;1.63;;;;;;;10.19;53.48;101591.00;5038313;28;20036;-80
2023/02/23 09:34:09;;;;;;;12.07;3.08;;;;;;;10.23;53.66;101588.31;5020347;28;20034;-80
2023/02/23 09:36:34;;;;;;;3.30;2.28;;;;;;;10.35;53.59;101597.41;5026084;28;20033;-80
2023/02/23 09:39:00;;;;;;;3.30;2.45;;;;;;;10.41;53.14;101586.00;5035434;28;20034;-82
2023/02/23 09:41:29;;;;;;;4.70;2.72;;;;;;;10.53;53.19;101575.25;5035099;28;20404;-81
2023/02/23 09:44:06;;;;;;;5.57;3.33;;;;;;;10.75;52.60;101588.31;5025576;28;20080;-79
2023/02/23 09:47:00;;;;;;;7.57;4.57;;;;;;;11.00;53.59;101607.25;5014144;28;20021;-89
2023/02/23 09:49:27;;;;;;;5.68;2.67;;;;;;;11.07;52.03;101605.31;5032350;28;20032;-81
2023/02/23 09:51:56;;;;;;;5.72;2.88;;;;;;;11.15;51.60;101616.25;5032081;28;20025;-86
2023/02/23 09:54:23;;;;;;;4.85;2.58;;;;;;;11.15;51.02;101606.72;5040887;28;20064;-87
2023/02/23 09:56:49;;;;;;;3.47;2.22;;;;;;;11.11;50.99;101591.34;5004297;28;20044;-88
2023/02/23 09:59:16;;;;;;;5.32;2.72;;;;;;;11.17;50.51;101599.75;5015933;28;20051;-95
2023/02/23 10:02:04;;;;;;;2.97;2.30;;;;;;;11.37;50.37;101617.16;5024623;28;20030;-82
2023/02/23 10:04:39;;;;;;;5.20;2.47;;;;;;;11.44;49.89;101617.78;5020254;28;20403;-88
2023/02/23 10:07:14;;;;;;;4.43;2.35;;;;;;;11.43;49.38;101616.09;5022751;28;20018;-85
2023/02/23 10:10:13;;;;;;;6.43;3.15;;;;;;;11.42;49.71;101610.06;5040248;28;20034;-89
2023/02/23 10:12:57;;;;;;;4.30;3.13;;;;;;;11.43;49.58;101614.34;5014692;28;20065;-88
2023/02/23 10:15:47;;;;;;;4.38;3.53;;;;;;;11.42;49.54;101598.88;5041350;28;20048;-92
2023/02/23 10:18:22;;;;;;;3.97;1.85;;;;;;;11.59;49.47;101611.19;5036017;28;20026;-94
2023/02/23 10:21:19;;;;;;;4.45;2.55;;;;;;;11.67;49.28;101610.00;5032121;28;20113;-91
2023/02/23 10:23:51;;;;;;;3.05;2.45;;;;;;;11.62;49.32;101598.97;5022510;28;20033;-81
2023/02/23 10:26:19;;;;;;;4.93;2.70;;;;;;;11.61;49.63;101594.69;5034509;28;20544;-88
2023/02/23 10:28:44;;;;;;;4.60;2.92;;;;;;;11.73;49.47;101594.22;5001816;28;20136;-87
2023/02/23 10:31:25;;;;;;;3.80;2.55;;;;;;;11.78;49.52;101605.25;5029916;28;20030;-87
2023/02/23 10:33:50;;;;;;;4.32;2.30;;;;;;;11.80;49.19;101591.41;5020163;28;20048;-87
2023/02/23 10:36:18;;;;;;;3.03;1.98;;;;;;;11.91;49.67;101602.22;5029692;28;20034;-83
2023/02/23 10:38:44;;;;;;;7.93;2.92;;;;;;;11.72;49.49;101558.84;5030011;28;20127;-85
2023/02/23 10:41:10;;;;;;;6.53;3.60;;;;;;;11.90;49.90;101595.34;5013616;28;20460;-84
2023/02/23 10:43:35;;;;;;;9.73;5.30;;;;;;;11.99;49.33;101582.00;5036053;28;20034;-84
2023/02/23 10:46:01;;;;;;;5.93;2.63;;;;;;;12.07;49.10;101579.94;5034119;28;20523;-92
2023/02/23 10:48:30;;;;;;;4.65;2.42;;;;;;;12.08;49.19;101581.63;5029154;28;20045;-88
2023/02/23 10:51:01;;;;;;;5.00;2.70;;;;;;;12.26;48.24;101588.69;4997176;28;20084;-88
2023/02/23 10:53:34;;;;;;;4.25;2.95;;;;;;;12.23;48.96;101567.22;5012337;28;20483;-83
2023/02/23 10:56:06;;;;;;;9.52;3.10;;;;;;;12.41;48.45;101578.59;5011537;28;20021;-88
2023/02/23 10:58:41;;;;;;;5.57;3.70;;;;;;;12.51;48.09;101574.72;5013483;28;20042;-85
2023/02/23 11:01:07;;;;;;;5.75;3.30;;;;;;;12.41;48.03;101534.50;5010518;28;20030;-80
2023/02/23 11:03:44;;;;;;;5.65;2.78;;;;;;;12.79;47.60;101559.66;5016508;28;20550;-83
2023/02/23 11:06:26;;;;;;;4.63;3.28;;;;;;;12.68;48.26;101561.84;5042690;28;20443;-93
2023/02/23 11:08:51;;;;;;;4.47;2.85;;;;;;;12.68;48.19;101559.25;5039491;28;20067;-82
2023/02/23 11:11:17;;;;;;;8.13;3.03;;;;;;;12.79;47.76;101562.25;5034010;28;20030;-83
2023/02/23 11:13:45;;;;;;;3.33;2.30;;;;;;;12.91;47.40;101555.69;5009642;28;20550;-83
2023/02/23 11:16:14;;;;;;;5.00;2.92;;;;;;;12.60;47.43;101530.19;5024696;28;20022;-83
2023/02/23 11:19:00;;;;;;;5.18;2.75;;;;;;;12.72;47.67;101550.44;5019112;28;20032;-81
2023/02/23 11:21:32;;;;;;;2.78;1.83;;;;;;;12.79;47.89;101543.22;5035260;28;20029;-86
2023/02/23 11:23:59;;;;;;;17.33;11.17;;;;;;;12.81;48.06;101544.84;5029723;28;20052;-92
2023/02/23 11:26:34;;;;;;;12.30;6.22;;;;;;;12.91;47.43;101551.31;5025670;28;20072;-90
2023/02/23 11:29:04;;;;;;;18.80;3.00;;;;;;;13.02;47.48;101548.25;5026368;28;20059;-93
2023/02/23 11:31:33;;;;;;;3.88;2.50;;;;;;;12.90;47.40;101546.19;5035734;28;20029;-93
2023/02/23 11:34:01;;;;;;;9.57;3.97;;;;;;;12.82;47.63;101528.34;5027140;28;20036;-86
2023/02/23 11:36:28;;;;;;;5.35;2.65;;;;;;;12.84;47.64;101523.09;5029862;28;20033;-91
2023/02/23 11:39:01;;;;;;;3.80;2.72;;;;;;;12.89;47.67;101532.38;5024295;28;20063;-87
2023/02/23 11:41:26;;;;;;;5.45;2.67;;;;;;;12.99;47.33;101540.59;5020759;28;20025;-85
2023/02/23 11:43:58;;;;;;;8.90;4.13;;;;;;;13.04;47.22;101540.38;5036652;28;20492;-83
2023/02/23 11:46:24;;;;;;;5.70;3.10;;;;;;;13.10;46.96;101540.13;5014162;28;20073;-87
2023/02/23 11:48:56;;;;;;;6.60;3.25;;;;;;;12.99;47.18;101516.38;5022505;28;20041;-83
2023/02/23 11:51:27;;;;;;;12.68;5.05;;;;;;;13.17;47.21;101520.72;5026124;28;20041;-85
2023/02/23 11:53:53;;;;;;;5.88;2.53;;;;;;;13.21;46.70;101522.31;5034844;28;20030;-83
2023/02/23 11:56:19;;;;;;;4.10;3.08;;;;;;;13.36;46.46;101529.41;5036616;28;20095;-85
2023/02/23 11:58:55;;;;;;;9.50;3.50;;;;;;;13.44;46.43;101529.88;5046380;28;20029;-87
2023/02/23 12:01:45;;;;;;;6.55;3.50;;;;;;;13.38;46.24;101493.81;5020780;28;20096;-89
2023/02/23 12:04:30;;;;;;;7.20;3.28;;;;;;;13.47;46.17;101508.97;5006231;28;20069;-90
2023/02/23 12:07:20;;;;;;;4.85;2.70;;;;;;;13.62;46.17;101529.94;5027878;28;20030;-85
2023/02/23 12:09:46;;;;;;;3.47;2.40;;;;;;;13.68;46.33;101527.06;5010439;28;20030;-87
2023/02/23 12:12:14;;;;;;;5.32;2.95;;;;;;;13.59;46.13;101523.16;5008251;28;20030;-86
2023/02/23 12:14:48;;;;;;;5.85;3.20;;;;;;;13.55;45.75;101505.16;5008191;28;20386;-83
2023/02/23 12:17:32;;;;;;;3.03;2.05;;;;;;;13.56;45.99;101527.63;5032845;28;20021;-88
2023/02/23 12:20:00;;;;;;;5.32;2.67;;;;;;;13.55;46.35;101526.78;5002456;28;20038;-85
2023/02/23 12:22:32;;;;;;;4.25;2.92;;;;;;;13.49;46.17;101527.09;5047262;28;20037;-88
2023/02/23 12:25:01;;;;;;;5.00;3.50;;;;;;;13.47;46.80;101521.97;5034980;28;20512;-88
2023/02/23 12:28:05;;;;;;;4.78;3.00;;;;;;;13.29;46.51;101473.44;5020755;28;20033;-95
2023/02/23 12:30:50;;;;;;;4.65;2.53;;;;;;;13.67;46.24;101517.59;5017415;28;20048;-87
2023/02/23 12:33:28;;;;;;;7.18;3.63;;;;;;;13.53;46.47;101494.81;5045909;28;20049;-83
2023/02/23 12:36:03;;;;;;;3.75;2.70;;;;;;;13.81;45.81;101512.56;5025174;28;20029;-91
2023/02/23 12:38:37;;;;;;;3.55;2.60;;;;;;;13.88;45.99;101519.16;5040290;28;20028;-88
2023/02/23 12:41:11;;;;;;;5.05;2.55;;;;;;;13.77;45.70;101500.63;5030678;28;20026;-89
2023/02/23 12:43:38;;;;;;;6.22;3.85;;;;;;;13.72;46.22;101513.00;5040061;28;20056;-85
2023/02/23 12:46:06;;;;;;;5.35;3.20;;;;;;;13.81;46.55;101519.53;5036398;28;20472;-85
2023/02/23 12:49:04;;;;;;;7.40;3.80;;;;;;;13.78;46.39;101497.94;5033729;28;20415;-96
2023/02/23 12:52:09;;;;;;;6.18;2.90;;;;;;;13.68;46.37;101481.09;5040556;28;20022;-84
2023/02/23 12:54:36;;;;;;;6.70;3.13;;;;;;;13.91;46.32;101495.59;4945048;28;20526;-83
2023/02/23 12:57:18;;;;;;;14.88;8.80;;;;;;;13.89;46.04;101494.00;5015915;28;20034;-86
2023/02/23 13:00:01;;;;;;;8.55;5.65;;;;;;;13.69;46.47;101502.75;5020124;28;20057;-88
2023/02/23 13:03:01;;;;;;;6.95;3.45;;;;;;;13.81;46.68;101512.56;5028772;28;20124;-84